Tamarack, MN

3:56 PM CDT on October 21, 2019 (GMT -0500)
Clark Township | | Change Station
Active Advisory: Flood Watch Active Notice: Flood Watch

Elev 1271 ft 46.64 °N, 93.15 °W | Updated 5 seconds ago

Rain
Rain
45.5 °F
Feels Like 46 °F
N
2
Wind Variable Wind from East
Gusts 3.0 mph

Today
High -- | Low -- °F
--% Chance of Precip.
Yesterday
High -- | Low -- °F
Precip. -- in
Pressure 29.22 in
Visibility 5.0 miles
Clouds Scattered Clouds 1000 ft
Mostly Cloudy 1400 ft
Overcast 2000 ft
Windchill 46 °F
Dew Point 44 °F
Humidity 96%
Rainfall 1.28 in
Snow Depth Not available.
7:38 AM 6:15 PM
Last Quarter, 46% visible
METAR KHZX 212039Z AUTO 03012G19KT 5SM SCT010 BKN014 OVC020 07/06 A2922 RMK AO2
Pressure 29.22 in
Visibility 5.0 miles
Clouds Scattered Clouds 1000 ft
Mostly Cloudy 1400 ft
Overcast 2000 ft
Windchill 46 °F
Dew Point 44 °F
Humidity 96%
Rainfall 1.28 in
Snow Depth Not available.
7:38 AM 6:15 PM
Last Quarter, 46% visible
METAR KHZX 212039Z AUTO 03012G19KT 5SM SCT010 BKN014 OVC020 07/06 A2922 RMK AO2

Get Your Daily Forecast Email!

Thanks for signing up!

Be on the lookout for a verification email in your inbox.

You'll start receiving severe weather alerts in your inbox..

×

10-Day Weather Forecast

Almanac

Astronomy

Oct. 21, 2019 Rise Set
Actual Time
Civil Twilight
Nautical Twilight
Astronomical Twilight
Moon
Length of Visible Light
Length of Day
Tomorrow will be .
, % of the Moon is Illuminated

Today's Extremes

State Highs State Lows

Community

WunderPhotos

Category 6

Welcome to Category 6. This is the collective home for Weather Underground's featured writeups by Dr. Jeff Masters (right), Bob Henson (left), Chris Burt, and other regular contributors.

Nearby

Air Quality

  Air Quality AQ Index Pollutant
Not available.

Snow Depth

Station Depth Elevation

Earthquake Activity

City Distance Mag. Time & Date
Minimum magnitude displayed is 2.5.

Coastal Water Temperatures

Place Temperature

Stations

Nearby Weather Stations

Station Location Temp. Windchill Dew Point Humidity Wind Precip. Elev Updated Type
                   

Watches & Warnings

Flood Watch
Issued: 11:21 AM CDT Oct. 21, 2019 – National Weather Service

The National Weather Service in Duluth has issued a
* Flood Watch for
the Mississippi River at Aitkin
* from Thursday morning until further notice.
* At 10:30 am Monday the stage was 11.1 feet.
* Minor flooding is possible.
* Flood stage is 13.0 feet.
* Forecast... flood stage may be reached by late Thursday morning.